Flight Track Log - Related Links

Times and Time Zones

All times are in EDT time to prevent confusion due to time zone crossing. See the AWE1913 flight status page for this flight to view local times or setup timezone preferences in your user account.

Time Position Orientation Groundspeed Altitude Reporting Facility
EDT Latitude Longitude Course Direction KTS MPH feet Rate Location/Type
Fri 10:07:18 AM 39.8667 -75.2667 185° South 161 185 600  Level Philadelphia TRACON
Fri 10:07:35 AM 39.8544 -75.2861 231° Southwest 166 191 1,400 1,946 Climbing FAA TRACON SMA TRACON (SMA)
Fri 10:07:55 AM 39.8433 -75.2975 218° Southwest 185 213 1,800 1,050 Climbing FAA TRACON SMA TRACON (SMA)
Fri 10:08:15 AM 39.8283 -75.3100 213° Southwest 202 232 2,100 1,650 Climbing FAA TRACON SMA TRACON (SMA)
Fri 10:08:35 AM 39.8075 -75.3281 214° Southwest 237 273 2,900 2,250 Climbing FAA TRACON SMA TRACON (SMA)
Fri 10:08:55 AM 39.7900 -75.3442 215° Southwest 248 285 3,600 2,100 Climbing FAA TRACON SMA TRACON (SMA)
Fri 10:09:00 AM 39.6642 -75.2833 180° South  Level FlightAware Approximate
Fri 10:09:15 AM 39.7714 -75.3611 215° Southwest 262 302 4,300  Level FAA TRACON SMA TRACON (SMA)
Fri 10:09:35 AM 39.7472 -75.3833 215° Southwest 274 315 5,600 3,750 Climbing FAA TRACON SMA TRACON (SMA)
Fri 10:09:55 AM 39.7258 -75.3961 205° Southwest 275 316 6,800 3,450 Climbing FAA TRACON SMA TRACON (SMA)
Fri 10:10:00 AM 39.5723 -75.3022 189° South  Level FlightAware Approximate
Fri 10:10:15 AM 39.6975 -75.3969 181° South 283 326 7,900  Level FAA TRACON SMA TRACON (SMA)
Fri 10:10:35 AM 39.6722 -75.3967 180° South 282 325 8,800 2,550 Climbing FAA TRACON SMA TRACON (SMA)
Fri 10:10:55 AM 39.6475 -75.3958 179° South 289 333 9,600 2,700 Climbing FAA TRACON SMA TRACON (SMA)
Fri 10:11:00 AM 39.4693 -75.3269 194° South  Level FlightAware Approximate
Fri 10:11:15 AM 39.6167 -75.3947 178° South 295 339 10,600  Level FAA TRACON SMA TRACON (SMA)
Fri 10:11:35 AM 39.5897 -75.3939 179° South 305 351 11,000 1,200 Climbing FAA TRACON SMA TRACON (SMA)
Fri 10:11:55 AM 39.5608 -75.3933 179° South 334 384 11,400 1,200 Climbing FAA TRACON SMA TRACON (SMA)
Fri 10:12:00 AM 39.3653 -75.3409 185° South  Level FlightAware Approximate
Fri 10:12:15 AM 39.5308 -75.3919 178° South 354 407 11,800  Level FAA TRACON SMA TRACON (SMA)
Fri 10:12:35 AM 39.4917 -75.3914 179° South 368 423 12,600 2,400 Climbing FAA TRACON SMA TRACON (SMA)
Fri 10:12:55 AM 39.4600 -75.3903 178° South 369 425 13,400 2,250 Climbing FAA TRACON SMA TRACON (SMA)
Fri 10:13:15 AM 39.4283 -75.3886 178° South 371 427 14,100 3,000 Climbing FAA TRACON SMA TRACON (SMA)
Fri 10:13:35 AM 39.3903 -75.3872 178° South 370 426 15,400 3,150 Climbing FAA TRACON SMA TRACON (SMA)
Fri 10:13:55 AM 39.3572 -75.3858 178° South 369 425 16,200 2,250 Climbing FAA TRACON SMA TRACON (SMA)
Fri 10:14:15 AM 39.3178 -75.3847 179° South 369 425 16,900 1,200 Climbing FAA TRACON SMA TRACON (SMA)
Fri 10:14:35 AM 39.2856 -75.3836 178° South 374 430 17,000 150 Climbing FAA TRACON SMA TRACON (SMA)
Fri 10:14:55 AM 39.2531 -75.3822 178° South 377 434 17,000  Level FAA TRACON SMA TRACON (SMA)
Fri 10:15:15 AM 39.2439 -75.3817 177° South 378 435 17,000 1,029 Level FAA TRACON SMA TRACON (SMA)
Fri 10:16:40 AM 39.0778 -75.4017 185° South 378 435 18,800 1,531 Climbing Washington Center
Fri 10:17:40 AM 38.9694 -75.4181 187° South 386 444 20,700 2,000 Climbing Washington Center
Fri 10:18:40 AM 38.8611 -75.4369 188° South 391 450 22,800 1,850 Climbing Washington Center
Fri 10:19:40 AM 38.7528 -75.4506 186° South 391 450 24,400 1,600 Climbing Washington Center
Fri 10:20:40 AM 38.6400 -75.4694 187° South 396 456 26,000 1,800 Climbing Washington Center
Fri 10:21:40 AM 38.5339 -75.4881 188° South 401 461 28,000 1,600 Climbing Washington Center
Fri 10:22:40 AM 38.4211 -75.4964 183° South 401 461 29,200 1,000 Climbing Washington Center
Fri 10:23:40 AM 38.3192 -75.5336 196° South 396 456 30,000 400 Climbing Washington Center
Fri 10:24:40 AM 38.2231 -75.5839 202° Southwest 386 444 30,000  Level Washington Center
Fri 10:25:40 AM 38.1314 -75.6444 207° Southwest 376 433 30,000 -50 Level Washington Center
Fri 10:26:40 AM 38.0397 -75.7050 207° Southwest 376 433 29,900 250 Descending Washington Center
Fri 10:27:40 AM 37.9478 -75.7631 206° Southwest 376 433 30,500 1,850 Climbing Washington Center
Fri 10:28:40 AM 37.8600 -75.8181 206° Southwest 366 421 33,600 1,750 Climbing Washington Center
Fri 10:29:40 AM 37.7642 -75.8728 204° Southwest 348 400 34,000 200 Climbing Washington Center
Fri 10:30:40 AM 37.6972 -75.9172 208° Southwest 335 386 34,000  Level Washington Center
Fri 10:31:40 AM 37.6178 -75.9694 208° Southwest 330 380 34,000  Level Washington Center
Fri 10:32:40 AM 37.5342 -76.0186 205° Southwest 330 380 34,000  Level Washington Center
Fri 10:33:40 AM 37.4528 -76.0681 206° Southwest 330 380 34,000  Level Washington Center
Fri 10:34:40 AM 37.3753 -76.1172 207° Southwest 325 374 34,000  Level Washington Center
Fri 10:35:40 AM 37.2875 -76.1636 203° Southwest 325 374 34,000  Level Washington Center
Fri 10:36:40 AM 37.2081 -76.2125 206° Southwest 325 374 34,000  Level Washington Center
Fri 10:37:40 AM 37.1242 -76.2639 206° Southwest 330 380 34,000  Level Washington Center
Fri 10:38:40 AM 37.0383 -76.3153 206° Southwest 330 380 34,000  Level Washington Center
Fri 10:39:40 AM 36.9567 -76.3639 205° Southwest 335 386 34,000  Level Washington Center
Fri 10:40:40 AM 36.8708 -76.4122 204° Southwest 335 386 34,000  Level Washington Center
Fri 10:41:40 AM 36.7892 -76.4658 208° Southwest 335 386 34,000  Level Washington Center
Fri 10:42:40 AM 36.6992 -76.5142 203° Southwest 335 386 34,000 -50 Level Washington Center
Fri 10:43:40 AM 36.6111 -76.5544 200° South 340 391 33,900 -50 Descending Washington Center
Fri 10:44:40 AM 36.5253 -76.5947 201° Southwest 334 384 33,900 50 Level Washington Center
Fri 10:45:40 AM 36.4394 -76.6300 198° South 334 384 34,000  Climbing Washington Center
Fri 10:46:40 AM 36.3556 -76.6675 200° South 329 379 33,900  Descending Washington Center
Fri 10:47:40 AM 36.2697 -76.7075 201° Southwest 329 379 34,000 50 Climbing Washington Center
Fri 10:48:40 AM 36.1861 -76.7425 199° South 329 379 34,000  Level Washington Center
Fri 10:49:40 AM 36.1022 -76.7822 201° Southwest 329 379 34,000  Level Washington Center
Fri 10:50:40 AM 36.0142 -76.8169 198° South 329 379 34,000 -50 Level Washington Center
Fri 10:51:40 AM 35.9325 -76.8542 200° South 329 379 33,900 -50 Descending Washington Center
Fri 10:52:40 AM 35.8506 -76.8914 200° South 329 379 33,900 50 Level Washington Center
Fri 10:53:40 AM 35.7667 -76.9283 200° South 329 379 34,000 50 Climbing Washington Center
Fri 10:54:40 AM 35.6808 -76.9653 199° South 329 379 34,000  Level Washington Center
Fri 10:55:40 AM 35.6094 -76.9997 201° Southwest 323 372 34,000  Level Washington Center
Fri 10:56:40 AM 35.5278 -77.0367 200° South 323 372 34,000  Level Washington Center
Fri 10:57:40 AM 35.4417 -77.0733 199° South 323 372 34,000  Level Washington Center
Fri 10:58:40 AM 35.3578 -77.1100 200° South 323 372 34,000  Level Washington Center
Fri 10:59:40 AM 35.2758 -77.1467 200° South 323 372 34,000  Level Washington Center
Fri 11:00:40 AM 35.1919 -77.1856 201° Southwest 328 377 34,000  Level Washington Center
Fri 11:01:41 AM 35.1058 -77.2194 198° South 334 384 34,000  Level Washington Center
Fri 11:02:40 AM 35.0242 -77.2558 200° South 329 379 34,000  Level Washington Center
Fri 11:03:40 AM 34.9381 -77.2922 199° South 329 379 34,000  Level Washington Center
Fri 11:04:41 AM 34.8539 -77.3283 199° South 329 379 34,000  Level Washington Center
Fri 11:05:40 AM 34.7719 -77.3669 201° Southwest 329 379 34,000  Level Washington Center
Fri 11:06:40 AM 34.6861 -77.4031 199° South 329 379 34,000  Level Washington Center
Fri 11:07:40 AM 34.6019 -77.4417 201° Southwest 329 379 34,000  Level Washington Center
Fri 11:08:40 AM 34.5139 -77.4647 192° South 329 379 34,000  Level Washington Center
Fri 11:09:40 AM 34.4261 -77.4856 191° South 324 373 34,000  Level Washington Center
Fri 11:10:40 AM 34.3358 -77.5061 191° South 324 373 34,000  Level Washington Center
Fri 11:11:40 AM 34.2439 -77.5239 189° South 330 380 34,000  Level Washington Center
Fri 11:13:40 AM 34.0556 -77.5639 190° South 350 403 34,000  Level Jacksonville Center
Fri 11:14:40 AM 33.9647 -77.5844 191° South 345 397 34,000  Level Jacksonville Center
Fri 11:15:40 AM 33.8736 -77.6050 191° South 339 390 34,000  Level Jacksonville Center
Fri 11:16:40 AM 33.7808 -77.6281 192° South 339 390 34,000  Level Jacksonville Center
Fri 11:17:40 AM 33.6917 -77.6433 188° South 334 384 34,000 -50 Level Jacksonville Center
Fri 11:18:40 AM 33.5986 -77.6639 190° South 334 384 33,900  Descending Jacksonville Center
Fri 11:19:40 AM 33.5078 -77.6842 191° South 334 384 34,000 50 Climbing Jacksonville Center
Fri 11:20:40 AM 33.4125 -77.7047 190° South 334 384 34,000  Level Jacksonville Center
Fri 11:21:40 AM 33.3194 -77.7250 190° South 339 390 34,000 -50 Level Jacksonville Center
Fri 11:22:40 AM 33.2242 -77.7431 189° South 344 396 33,900 -50 Descending Jacksonville Center
Fri 11:23:40 AM 33.1292 -77.7633 190° South 349 402 33,900 50 Level Jacksonville Center
Fri 11:24:40 AM 33.0342 -77.7861 191° South 349 402 34,000 50 Climbing Jacksonville Center
Fri 11:25:40 AM 32.9367 -77.8067 190° South 349 402 34,000  Level Jacksonville Center
Fri 11:26:40 AM 32.8375 -77.8269 190° South 354 407 34,000 -50 Level Jacksonville Center
Fri 11:27:40 AM 32.7403 -77.8472 190° South 354 407 33,900  Descending Jacksonville Center
Fri 11:28:40 AM 32.6428 -77.8675 190° South 354 407 34,000 50 Climbing Jacksonville Center
Fri 11:29:40 AM 32.5456 -77.8878 190° South 360 414 34,000  Level Jacksonville Center
Fri 11:30:40 AM 32.4417 -77.8983 185° South 360 414 34,000  Level Jacksonville Center
Fri 11:31:40 AM 32.3408 -77.8842 173° South 366 421 34,000 -50 Level Jacksonville Center
Fri 11:32:40 AM 32.2381 -77.8703 173° South 371 427 33,900 -50 Descending Jacksonville Center
Fri 11:33:40 AM 32.1333 -77.8611 176° South 371 427 33,900 50 Level Jacksonville Center
Fri 11:34:40 AM 32.0325 -77.8447 172° South 371 427 34,000 50 Climbing Jacksonville Center
Fri 11:35:40 AM 31.9275 -77.8283 172° South 376 433 34,000  Level Jacksonville Center
Fri 11:36:40 AM 31.8281 -77.8486 190° South 360 414 34,000  Level Jacksonville Center
Fri 11:37:40 AM 31.7317 -77.8881 199° South 366 421 34,000  Level Jacksonville Center
Fri 11:38:40 AM 31.6347 -77.9200 196° South 364 419 34,000 -50 Level Jacksonville Center
Fri 11:39:40 AM 31.5378 -77.9497 195° South 375 432 33,900  Descending Jacksonville Center
Fri 11:40:40 AM 31.4433 -77.9886 199° South 374 430 34,000 50 Climbing Jacksonville Center
Fri 11:41:40 AM 31.3447 -78.0281 199° South 374 430 34,000  Level Jacksonville Center
Fri 11:42:40 AM 31.2475 -78.0525 192° South 369 425 34,000  Level Jacksonville Center
Fri 11:43:40 AM 31.1506 -78.0864 197° South 369 425 34,000  Level Jacksonville Center
Fri 11:44:40 AM 31.0558 -78.1181 196° South 369 425 34,000  Level Jacksonville Center
Fri 11:45:40 AM 30.9575 -78.1642 202° Southwest 376 433 34,000  Level Jacksonville Center
Fri 11:46:40 AM 30.8625 -78.1956 196° South 370 426 34,000  Level Jacksonville Center
Fri 11:47:40 AM 30.7636 -78.2319 198° South 370 426 34,000  Level Jacksonville Center
Fri 11:50:07 AM 30.5294 -78.3100 196° South 375 432 34,000  Level Miami Center
Fri 11:51:07 AM 30.4372 -78.3447 198° South 377 434 34,000  Level Miami Center
Fri 11:52:07 AM 30.3308 -78.3600 187° South 372 428 34,000  Level Miami Center
Fri 11:53:07 AM 30.2328 -78.3683 184° South 374 430 34,000  Level Miami Center
Fri 11:54:07 AM 30.1264 -78.3717 182° South 367 422 34,000  Level Miami Center
Fri 11:55:07 AM 30.0308 -78.3511 169° South 367 422 34,000 -150 Level Miami Center
Fri 11:56:07 AM 29.9286 -78.3378 174° South 365 420 33,700 -650 Descending Miami Center
Fri 11:57:07 AM 29.8267 -78.3172 170° South 376 433 32,700 -850 Descending Miami Center
Fri 11:58:07 AM 29.7186 -78.2919 169° South 383 441 32,000 -350 Descending Miami Center
Fri 11:59:07 AM 29.6186 -78.2714 170° South 383 441 32,000  Level Miami Center
Fri 12:00:07 PM 29.5147 -78.2486 169° South 383 441 32,000  Level Miami Center
Fri 12:01:07 PM 29.4083 -78.2258 169° South 383 441 32,000 -300 Level Miami Center
Fri 12:02:07 PM 29.3022 -78.2056 171° South 389 448 31,400 -800 Descending Miami Center
Fri 12:03:07 PM 29.1981 -78.1828 169° South 389 448 30,400 -1,000 Descending Miami Center
Fri 12:04:07 PM 29.0961 -78.1625 170° South 385 443 29,400 -1,000 Descending Miami Center
Fri 12:05:07 PM 28.9919 -78.1425 170° South 393 452 28,400 -1,000 Descending Miami Center
Fri 12:06:07 PM 28.8836 -78.1197 170° South 388 447 27,400 -1,000 Descending Miami Center
Fri 12:07:07 PM 28.7817 -78.0972 169° South 388 447 26,400 -750 Descending Miami Center
Fri 12:08:07 PM 28.6836 -78.0772 170° South 380 437 25,900 -200 Descending Miami Center
Fri 12:09:07 PM 28.5794 -78.0572 170° South 380 437 26,000 50 Climbing Miami Center
Fri 12:10:07 PM 28.4794 -78.0350 169° South 370 426 26,000  Level Miami Center
Fri 12:11:07 PM 28.3731 -78.0150 171° South 370 426 26,000  Level Miami Center
Fri 12:12:07 PM 28.2753 -77.9950 170° South 370 426 26,000  Level Miami Center
Fri 12:13:07 PM 28.1731 -77.9728 169° South 370 426 26,000  Level Miami Center
Fri 12:14:07 PM 28.0731 -77.9553 171° South 375 432 26,000  Level Miami Center
Fri 12:15:07 PM 27.9708 -77.9333 169° South 375 432 26,000 -50 Level Miami Center
Fri 12:16:07 PM 27.8561 -77.9133 171° South 381 438 25,900  Descending Miami Center
Fri 12:17:07 PM 27.7456 -77.8914 170° South 397 457 26,000 50 Climbing Miami Center
Fri 12:18:07 PM 27.6372 -77.8692 170° South 403 464 26,000 -50 Level Miami Center
Fri 12:19:07 PM 27.5289 -77.8447 169° South 410 472 25,900 -50 Descending Miami Center
Fri 12:20:07 PM 27.4225 -77.8228 170° South 405 466 25,900 -400 Level Miami Center
Fri 12:21:07 PM 27.2972 -77.8078 174° South 411 473 25,100 -450 Descending Miami Center
Fri 12:22:07 PM 27.1908 -77.7836 169° South 400 460 25,000 -50 Descending Miami Center
Fri 12:23:07 PM 27.0969 -77.7619 168° South 395 455 25,000  Level Miami Center
Fri 12:24:07 PM 26.9906 -77.7447 172° South 389 448 25,000 -450 Level Miami Center
Fri 12:25:07 PM 26.8861 -77.7228 169° South 389 448 24,100 -500 Descending Miami Center
Fri 12:26:07 PM 26.7819 -77.7036 171° South 389 448 24,000 -50 Descending Miami Center
Fri 12:27:07 PM 26.6797 -77.6842 170° South 389 448 24,000  Level Miami Center
Fri 12:28:07 PM 26.5731 -77.6650 171° South 389 448 24,000 -300 Level Miami Center
Fri 12:29:07 PM 26.4689 -77.6408 168° South 389 448 23,400 -850 Descending Miami Center
Fri 12:30:07 PM 26.3686 -77.6194 169° South 384 442 22,300 -1,000 Descending Miami Center
Fri 12:31:07 PM 26.2728 -77.5981 169° South 365 420 21,400 -950 Descending Miami Center
Fri 12:32:07 PM 26.1767 -77.5833 172° South 360 414 20,400 -1,350 Descending Miami Center
Fri 12:33:07 PM 26.0828 -77.5667 171° South 350 403 18,700 -1,650 Descending Miami Center
Fri 12:34:07 PM 25.9908 -77.5500 171° South 350 403 17,100 -1,450 Descending Miami Center
Fri 12:35:07 PM 25.9094 -77.5286 167° South 326 375 15,800 -1,850 Descending Miami Center
Fri 12:36:07 PM 25.8300 -77.5144 171° South 309 356 13,400 -1,350 Descending Miami Center
Fri 12:37:07 PM 25.7486 -77.5000 171° South 304 350 13,100 -250 Descending Miami Center
Fri 12:38:07 PM 25.6692 -77.4883 172° South 292 336 12,900 -800 Descending Miami Center
Fri 12:39:07 PM 25.5900 -77.4833 177° South 292 336 11,500 -1,500 Descending Miami Center
Fri 12:40:07 PM 25.5125 -77.4781 176° South 292 336 9,900 -1,650 Descending Miami Center
Fri 12:41:07 PM 25.4311 -77.4733 177° South 285 328 8,200 -1,700 Descending Miami Center

Login

Don't have an account? Register now (free) for customized features, flight alerts, and more!